Time;durP1;ratioP1;P1;durP2;ratioP2;P2;SDS_P1;SDS_P2;PMS_P1;PMS_P2;Temp;Humidity;BMP_temperature;BMP_pressure;BME280_temperature;BME280_humidity;BME280_pressure;Samples;Min_cycle;Max_cycle;Signal;HPM_P1;HPM_P2
2023/08/04 00:20:25;;;;;;;;;;;;;;;;;;;;;
2023/08/04 01:07:33;;;;;;;;;;;;;;;;;;;;;
2023/08/04 01:19:40;;;;;;;;;;;;;;;;;;;;;
2023/08/04 01:27:26;;;;;;;;;;;;;;;;;;;;;
2023/08/04 01:31:51;;;;;;;;;;;;;;;;;;;;;
2023/08/04 01:35:37;;;;;;;;;;;;;;;;;;;;;
2023/08/04 01:43:57;;;;;;;;;;;;;;;;;;;;;
2023/08/04 01:48:05;;;;;;;;;;;;;;;;;;;;;
2023/08/04 01:56:26;;;;;;;;;;;;;;;;;;;;;
2023/08/04 02:04:25;;;;;;;3.35;1.30;;;16.00;99.90;;;;;;6056402;23;20025;-93
2023/08/04 02:15:35;;;;;;;;;;;;;;;;;;;;;
2023/08/04 02:19:56;;;;;;;;;;;;;;;;;;;;;
2023/08/04 02:32:03;;;;;;;;;;;;;;;;;;;;;
2023/08/04 02:44:33;;;;;;;6.55;1.95;;;16.00;99.90;;;;;;5922434;24;20012;-94
2023/08/04 02:48:12;;;;;;;5.20;1.73;;;15.90;99.90;;;;;;5861258;24;20013;-94
2023/08/04 02:52:17;;;;;;;;;;;;;;;;;;;;;
2023/08/04 03:12:38;;;;;;;;;;;;;;;;;;;;;
2023/08/04 03:16:30;;;;;;;;;;;;;;;;;;;;;
2023/08/04 03:29:10;;;;;;;;;;;;;;;;;;;;;
2023/08/04 03:36:46;;;;;;;;;;;;;;;;;;;;;
2023/08/04 03:45:39;;;;;;;;;;;;;;;;;;;;;
2023/08/04 03:53:37;;;;;;;;;;;;;;;;;;;;;
2023/08/04 03:57:02;;;;;;;;;;;;;;;;;;;;;
2023/08/04 04:00:53;;;;;;;;;;;;;;;;;;;;;
2023/08/04 04:04:48;;;;;;;;;;;;;;;;;;;;;
2023/08/04 04:08:57;;;;;;;;;;;;;;;;;;;;;
2023/08/04 04:33:03;;;;;;;;;;;;;;;;;;;;;
2023/08/04 04:37:31;;;;;;;6.93;2.38;;;15.90;99.90;;;;;;6170565;23;20046;-93
2023/08/04 04:41:00;;;;;;;6.38;2.35;;;15.90;99.90;;;;;;6166471;23;20009;-93
2023/08/04 04:48:53;;;;;;;;;;;;;;;;;;;;;
2023/08/04 04:56:31;;;;;;;;;;;;;;;;;;;;;
2023/08/04 05:00:44;;;;;;;;;;;;;;;;;;;;;
2023/08/04 05:04:47;;;;;;;;;;;;;;;;;;;;;
2023/08/04 05:16:32;;;;;;;;;;;;;;;;;;;;;
2023/08/04 06:09:01;;;;;;;;;;;;;;;;;;;;;
2023/08/04 13:00:30;;;;;;;7.95;2.10;;;20.10;99.90;;;;;;6150318;23;1715723;-90
2023/08/04 13:03:01;;;;;;;8.45;2.00;;;20.10;99.90;;;;;;6170697;23;20016;-89
2023/08/04 13:05:30;;;;;;;8.27;1.90;;;20.20;99.90;;;;;;6145909;23;20012;-91
2023/08/04 13:08:13;;;;;;;6.97;2.20;;;20.10;99.90;;;;;;6172370;23;20036;-90
2023/08/04 13:10:42;;;;;;;8.07;1.60;;;20.00;99.90;;;;;;6169907;23;20455;-89
2023/08/04 13:13:11;;;;;;;6.32;1.90;;;20.00;99.90;;;;;;6193695;23;20298;-89
2023/08/04 13:15:44;;;;;;;8.50;2.42;;;20.10;99.90;;;;;;6169835;23;20341;-88
2023/08/04 13:18:15;;;;;;;8.18;1.63;;;20.20;99.90;;;;;;6171731;23;20028;-89
2023/08/04 13:20:41;;;;;;;5.95;1.60;;;20.30;99.90;;;;;;6169805;23;20036;-89
2023/08/04 13:23:09;;;;;;;5.68;1.60;;;20.30;99.90;;;;;;6194146;23;20040;-89
2023/08/04 13:25:42;;;;;;;3.42;1.52;;;20.40;99.90;;;;;;6193943;23;19996;-89
2023/08/04 13:28:08;;;;;;;7.43;1.50;;;20.40;99.90;;;;;;6169371;23;20082;-90
2023/08/04 13:30:40;;;;;;;5.18;1.70;;;20.40;99.90;;;;;;6194403;23;20003;-90
2023/08/04 13:33:14;;;;;;;6.22;1.80;;;20.30;99.90;;;;;;6195126;23;20009;-90
2023/08/04 13:35:42;;;;;;;6.32;1.88;;;20.20;99.90;;;;;;6194012;23;20032;-92
2023/08/04 13:38:33;;;;;;;9.43;2.00;;;20.00;99.90;;;;;;6197801;23;20023;-90
2023/08/04 13:41:04;;;;;;;9.82;2.28;;;20.00;99.90;;;;;;6193352;23;20530;-89
2023/08/04 13:43:33;;;;;;;7.28;2.00;;;20.00;99.90;;;;;;6145676;23;20112;-89
2023/08/04 13:46:01;;;;;;;10.48;1.98;;;20.00;99.90;;;;;;6193880;23;20008;-90
2023/08/04 13:48:36;;;;;;;4.35;2.00;;;19.90;99.90;;;;;;6148216;23;20060;-91
2023/08/04 13:51:09;;;;;;;12.52;2.00;;;20.00;99.90;;;;;;6195740;23;20009;-89
2023/08/04 13:53:38;;;;;;;7.97;2.15;;;19.90;99.90;;;;;;6144929;23;20031;-86
2023/08/04 13:56:09;;;;;;;8.52;2.28;;;19.90;99.90;;;;;;6191246;23;20008;-89
2023/08/04 13:58:38;;;;;;;8.15;2.00;;;19.80;99.90;;;;;;6192065;23;20079;-90
2023/08/04 14:01:04;;;;;;;5.30;1.70;;;19.80;99.90;;;;;;6144650;23;20017;-90
2023/08/04 14:03:43;;;;;;;9.77;2.40;;;19.80;99.90;;;;;;6194286;23;20447;-90
2023/08/04 14:06:17;;;;;;;7.53;2.10;;;19.80;99.90;;;;;;6169509;23;20020;-91
2023/08/04 14:08:52;;;;;;;9.60;2.33;;;19.70;99.90;;;;;;6170848;23;20115;-90
2023/08/04 14:11:22;;;;;;;7.68;1.90;;;19.60;99.90;;;;;;6166825;23;20015;-89
2023/08/04 14:14:26;;;;;;;6.20;1.70;;;19.60;99.90;;;;;;6215606;23;20019;-93
2023/08/04 14:16:54;;;;;;;7.37;2.23;;;19.60;99.90;;;;;;6167120;23;20013;-90
2023/08/04 14:19:23;;;;;;;6.78;1.70;;;19.70;99.90;;;;;;6194335;23;20009;-89
2023/08/04 14:22:13;;;;;;;;;;;;;;;;;;;;;
2023/08/04 14:24:49;;;;;;;8.77;2.17;;;20.10;99.90;;;;;;6170385;23;20016;-91
2023/08/04 14:27:45;;;;;;;7.03;1.80;;;20.20;99.90;;;;;;6218297;23;20008;-93
2023/08/04 14:30:34;;;;;;;6.82;1.67;;;20.20;99.90;;;;;;6191225;23;20104;-90
2023/08/04 14:33:07;;;;;;;8.25;1.65;;;20.10;99.90;;;;;;6192935;23;20096;-90
2023/08/04 14:35:38;;;;;;;4.93;1.40;;;20.00;99.90;;;;;;6192902;23;20054;-91
2023/08/04 14:38:07;;;;;;;6.80;1.65;;;20.00;99.90;;;;;;6167694;23;20004;-90
2023/08/04 14:40:49;;;;;;;7.13;2.05;;;20.00;99.90;;;;;;6171560;23;20008;-89
2023/08/04 14:43:16;;;;;;;4.78;1.60;;;19.90;99.90;;;;;;6193845;23;20008;-90
2023/08/04 14:45:45;;;;;;;5.18;1.50;;;19.80;99.90;;;;;;6217505;23;20000;-87
2023/08/04 14:48:13;;;;;;;5.60;1.50;;;19.80;99.90;;;;;;6193157;23;20005;-88
2023/08/04 14:50:42;;;;;;;5.20;2.10;;;19.70;99.90;;;;;;6192588;23;20009;-88
2023/08/04 14:53:08;;;;;;;4.60;1.40;;;19.70;99.90;;;;;;6166823;23;20012;-88
2023/08/04 14:55:38;;;;;;;5.30;1.83;;;19.70;99.90;;;;;;6188509;23;20013;-89
2023/08/04 14:58:07;;;;;;;4.03;1.50;;;19.80;99.90;;;;;;6165803;23;20001;-89
2023/08/04 15:00:35;;;;;;;4.25;1.45;;;19.90;99.90;;;;;;6169051;23;20496;-90
2023/08/04 15:03:04;;;;;;;6.18;1.70;;;19.80;99.90;;;;;;6171144;23;20016;-90
2023/08/04 15:05:38;;;;;;;4.88;1.50;;;19.70;99.90;;;;;;6170796;23;20015;-90
2023/08/04 15:08:07;;;;;;;6.28;1.80;;;19.70;99.90;;;;;;6172921;23;20036;-88
2023/08/04 15:11:10;;;;;;;4.75;1.45;;;19.70;99.90;;;;;;6202079;23;20023;-89
2023/08/04 15:13:48;;;;;;;5.10;1.42;;;19.70;99.90;;;;;;6173693;23;20004;-90
2023/08/04 15:16:29;;;;;;;4.38;1.50;;;19.80;99.90;;;;;;6199891;23;20369;-89
2023/08/04 15:19:00;;;;;;;4.15;1.60;;;19.80;99.90;;;;;;6173924;23;20115;-89
2023/08/04 15:21:26;;;;;;;9.20;1.90;;;19.80;99.90;;;;;;6221048;23;20012;-89
2023/08/04 15:23:52;;;;;;;9.60;2.28;;;19.80;99.90;;;;;;6172226;23;20086;-90
2023/08/04 15:26:23;;;;;;;6.28;2.03;;;19.90;99.90;;;;;;6174274;23;20020;-89
2023/08/04 15:29:05;;;;;;;7.30;1.92;;;19.90;99.90;;;;;;6197437;23;20091;-89
2023/08/04 15:31:57;;;;;;;5.70;1.73;;;20.00;99.90;;;;;;6205961;23;20076;-89
2023/08/04 15:34:30;;;;;;;7.72;2.10;;;20.00;99.90;;;;;;6198231;23;20004;-89
2023/08/04 15:37:04;;;;;;;7.53;2.03;;;20.10;99.90;;;;;;6173478;23;20058;-89
2023/08/04 15:39:32;;;;;;;6.18;2.03;;;20.00;99.90;;;;;;6172909;23;20041;-89
2023/08/04 15:42:08;;;;;;;8.70;2.08;;;19.80;99.90;;;;;;6173159;23;20009;-90
2023/08/04 15:44:39;;;;;;;9.23;2.08;;;19.80;99.90;;;;;;6195876;23;20008;-89
2023/08/04 15:47:19;;;;;;;7.55;1.98;;;19.70;99.90;;;;;;6196898;23;20023;-88
2023/08/04 15:49:53;;;;;;;5.70;1.92;;;19.70;99.90;;;;;;6174228;23;20278;-89
2023/08/04 15:52:21;;;;;;;6.03;1.98;;;19.80;99.90;;;;;;6197414;23;20008;-89
2023/08/04 15:54:50;;;;;;;7.35;1.85;;;19.80;99.90;;;;;;6172459;23;20099;-89
2023/08/04 15:57:21;;;;;;;5.97;1.88;;;19.90;99.90;;;;;;6172721;23;20004;-89
2023/08/04 15:59:52;;;;;;;5.07;1.70;;;20.00;99.90;;;;;;6221406;23;20023;-89
2023/08/04 16:02:24;;;;;;;4.53;1.60;;;20.20;99.90;;;;;;6172743;23;20012;-91
2023/08/04 16:05:00;;;;;;;7.60;1.70;;;20.30;99.90;;;;;;6222871;23;20015;-89
2023/08/04 16:07:37;;;;;;;5.72;1.85;;;20.40;99.90;;;;;;6197696;23;20008;-89
2023/08/04 16:10:35;;;;;;;5.82;1.83;;;20.50;99.90;;;;;;6203280;23;20004;-90
2023/08/04 16:13:16;;;;;;;;;;;;;;;;;;;;;
2023/08/04 16:15:44;;;;;;;6.63;1.77;;;20.80;99.90;;;;;;6196427;23;20019;-92
2023/08/04 16:18:17;;;;;;;8.90;2.00;;;20.50;99.90;;;;;;6198031;23;20011;-89
2023/08/04 16:20:52;;;;;;;7.13;2.10;;;20.20;99.90;;;;;;6148472;23;20042;-90
2023/08/04 16:23:20;;;;;;;8.15;1.90;;;20.00;99.90;;;;;;6197400;23;20004;-90
2023/08/04 16:25:57;;;;;;;5.53;1.90;;;19.80;99.90;;;;;;6173287;23;20008;-89
2023/08/04 16:28:29;;;;;;;5.70;1.80;;;19.70;99.90;;;;;;6172607;23;20000;-90
2023/08/04 16:31:00;;;;;;;6.95;1.70;;;19.70;99.90;;;;;;6171788;23;20008;-91
2023/08/04 16:33:26;;;;;;;4.82;1.70;;;19.60;99.90;;;;;;6172228;23;20062;-88
2023/08/04 16:36:01;;;;;;;5.93;1.70;;;19.50;99.90;;;;;;6197182;23;20087;-89
2023/08/04 16:38:33;;;;;;;6.28;1.88;;;19.40;99.90;;;;;;6174249;23;20400;-89
2023/08/04 16:41:01;;;;;;;6.97;2.10;;;19.30;99.90;;;;;;6172973;23;20023;-90
2023/08/04 16:43:40;;;;;;;6.75;2.00;;;19.30;99.90;;;;;;6175665;23;20004;-89
2023/08/04 16:46:16;;;;;;;9.32;2.10;;;19.30;99.90;;;;;;6176302;23;20031;-90
2023/08/04 16:48:44;;;;;;;8.25;2.35;;;19.20;99.90;;;;;;6173413;23;20023;-90
2023/08/04 16:51:16;;;;;;;8.35;2.38;;;19.20;99.90;;;;;;6173032;23;20026;-90
2023/08/04 16:53:46;;;;;;;6.20;2.00;;;19.10;99.90;;;;;;6173595;23;20015;-88
2023/08/04 16:56:34;;;;;;;5.82;2.05;;;19.10;99.90;;;;;;6199175;23;20011;-89
2023/08/04 16:59:05;;;;;;;9.63;2.50;;;19.10;99.90;;;;;;6173836;23;20389;-90
2023/08/04 17:01:56;;;;;;;7.03;2.20;;;19.00;99.90;;;;;;6183160;23;20390;-90
2023/08/04 17:04:34;;;;;;;8.65;2.47;;;19.00;99.90;;;;;;6174592;23;20153;-88
2023/08/04 17:07:06;;;;;;;8.55;2.60;;;18.90;99.90;;;;;;6175527;23;20028;-89
2023/08/04 17:10:00;;;;;;;8.20;2.28;;;18.90;99.90;;;;;;6186639;23;20086;-88
2023/08/04 17:12:31;;;;;;;7.32;2.25;;;18.90;99.90;;;;;;6174169;23;20435;-91
2023/08/04 17:14:57;;;;;;;12.25;2.65;;;18.80;99.90;;;;;;6123977;23;20012;-89
2023/08/04 17:17:29;;;;;;;8.45;2.50;;;18.80;99.90;;;;;;6198808;23;20004;-88
2023/08/04 17:19:55;;;;;;;10.90;2.55;;;18.70;99.90;;;;;;6223758;23;20028;-89
2023/08/04 17:22:46;;;;;;;10.65;2.65;;;18.50;99.90;;;;;;6181151;23;20004;-89
2023/08/04 17:25:17;;;;;;;8.15;2.50;;;18.40;99.90;;;;;;6174696;23;20277;-90
2023/08/04 17:27:50;;;;;;;13.02;2.40;;;18.30;99.90;;;;;;6197619;23;20007;-89
2023/08/04 17:30:25;;;;;;;9.93;2.58;;;18.30;99.90;;;;;;6129976;23;20090;-88
2023/08/04 17:33:16;;;;;;;;;;;;;;;;;;;;;
2023/08/04 17:36:11;;;;;;;13.60;2.30;;;18.20;99.90;;;;;;6178689;23;20016;-89
2023/08/04 17:38:56;;;;;;;10.23;2.42;;;18.20;99.90;;;;;;6128907;23;20104;-88
2023/08/04 17:41:30;;;;;;;8.13;2.40;;;18.20;99.90;;;;;;6133841;23;20013;-89
2023/08/04 17:44:07;;;;;;;8.35;2.38;;;18.20;99.90;;;;;;6063261;23;20450;-89
2023/08/04 17:46:40;;;;;;;6.68;2.00;;;18.10;99.90;;;;;;6086096;23;20013;-89
2023/08/04 17:49:18;;;;;;;7.88;2.33;;;18.20;99.90;;;;;;6130476;23;20523;-89
2023/08/04 17:51:50;;;;;;;6.60;2.30;;;18.20;99.90;;;;;;6088124;23;20009;-89
2023/08/04 17:54:28;;;;;;;10.63;2.15;;;18.10;99.90;;;;;;6133021;23;20453;-89
2023/08/04 17:57:15;;;;;;;7.40;2.35;;;18.10;99.90;;;;;;6133205;23;20391;-89
2023/08/04 17:59:56;;;;;;;9.07;2.55;;;18.00;99.90;;;;;;6086811;23;20022;-88
2023/08/04 18:02:34;;;;;;;6.28;2.05;;;18.00;99.90;;;;;;6141091;23;20015;-89
2023/08/04 18:05:06;;;;;;;8.63;2.40;;;17.90;99.90;;;;;;6199408;23;20019;-89
2023/08/04 18:07:41;;;;;;;6.25;1.90;;;17.90;99.90;;;;;;6175143;23;20412;-89
2023/08/04 18:10:28;;;;;;;6.03;2.10;;;17.90;99.90;;;;;;6205803;23;20435;-89
2023/08/04 18:13:00;;;;;;;5.78;2.00;;;17.80;99.90;;;;;;6172584;23;20406;-90
2023/08/04 18:15:30;;;;;;;5.75;2.10;;;17.80;99.90;;;;;;6198565;23;20080;-91
2023/08/04 18:18:08;;;;;;;8.00;2.20;;;17.70;99.90;;;;;;6172334;23;20057;-92
2023/08/04 18:20:48;;;;;;;6.47;2.30;;;17.70;99.90;;;;;;6198994;23;20000;-91
2023/08/04 18:23:21;;;;;;;6.70;2.00;;;17.70;99.90;;;;;;6151799;23;20014;-90
2023/08/04 18:25:59;;;;;;;6.80;2.35;;;17.70;99.90;;;;;;6174684;23;20005;-90
2023/08/04 18:37:14;;;;;;;5.97;2.10;;;17.60;99.90;;;;;;6069228;23;20431;-89
2023/08/04 18:39:51;;;;;;;8.30;2.38;;;17.50;99.90;;;;;;6057928;23;20010;-89
2023/08/04 18:42:45;;;;;;;5.85;2.10;;;17.50;99.90;;;;;;6160984;23;19992;-89
2023/08/04 18:45:18;;;;;;;7.72;2.35;;;17.40;99.90;;;;;;6176321;23;20004;-90
2023/08/04 18:52:09;;;;;;;5.65;1.98;;;17.40;99.90;;;;;;6207598;23;20058;-89
2023/08/04 18:55:36;;;;;;;;;;;17.20;99.90;;;;;;6185465;23;20351;-89
2023/08/04 18:59:18;;;;;;;5.90;2.22;;;17.20;99.90;;;;;;6068522;23;19905;-89
2023/08/04 19:02:06;;;;;;;8.55;2.70;;;17.20;99.90;;;;;;6160012;23;20009;-91
2023/08/04 19:04:41;;;;;;;7.15;2.20;;;17.20;99.90;;;;;;6136810;23;20284;-91
2023/08/04 19:07:09;;;;;;;8.02;2.72;;;17.20;99.90;;;;;;6113946;23;20519;-89
2023/08/04 19:09:38;;;;;;;8.75;3.00;;;17.10;99.90;;;;;;6111678;23;20096;-89
2023/08/04 19:12:20;;;;;;;9.68;2.65;;;17.00;99.90;;;;;;6110903;23;20005;-92
2023/08/04 19:14:57;;;;;;;8.35;2.50;;;17.10;99.90;;;;;;6112522;23;20005;-91
2023/08/04 19:17:27;;;;;;;6.00;2.35;;;17.00;99.90;;;;;;6136111;23;20028;-91
2023/08/04 19:20:07;;;;;;;5.90;2.78;;;17.00;99.90;;;;;;6135305;23;20410;-90
2023/08/04 19:22:36;;;;;;;7.05;2.50;;;17.00;99.90;;;;;;6135448;23;20104;-90
2023/08/04 19:25:15;;;;;;;9.07;2.58;;;16.90;99.90;;;;;;6115225;23;20020;-89
2023/08/04 19:28:28;;;;;;;;;;;;;;;;;;;;;
2023/08/04 19:31:00;;;;;;;7.68;2.38;;;17.00;99.90;;;;;;6222183;23;20012;-90
2023/08/04 19:33:36;;;;;;;8.55;3.67;;;16.90;99.90;;;;;;6173634;23;20012;-90
2023/08/04 19:36:17;;;;;;;9.63;2.70;;;16.90;99.90;;;;;;6176147;23;20008;-90
2023/08/04 19:38:45;;;;;;;10.00;2.97;;;16.90;99.90;;;;;;6172495;23;20020;-89
2023/08/04 19:41:15;;;;;;;12.00;3.60;;;16.90;99.90;;;;;;6197767;23;20019;-90
2023/08/04 19:44:21;;;;;;;14.80;8.10;;;17.00;99.90;;;;;;6176005;23;20008;-89
2023/08/04 19:47:03;;;;;;;30.42;19.67;;;17.00;99.90;;;;;;6196696;23;20032;-91
2023/08/04 19:49:59;;;;;;;39.35;29.48;;;16.90;99.90;;;;;;6155629;23;20008;-89
2023/08/04 19:52:30;;;;;;;28.55;21.65;;;16.90;99.90;;;;;;6198682;23;20313;-91
2023/08/04 19:55:11;;;;;;;16.20;11.10;;;16.90;99.90;;;;;;6198544;23;20054;-89
2023/08/04 19:57:42;;;;;;;9.85;5.00;;;16.90;99.90;;;;;;6173642;23;20008;-90
2023/08/04 20:00:09;;;;;;;11.05;4.40;;;16.90;99.90;;;;;;6196800;23;20015;-90
2023/08/04 20:02:41;;;;;;;8.93;3.40;;;16.90;99.90;;;;;;6222019;23;20005;-90
2023/08/04 20:05:17;;;;;;;7.50;3.33;;;16.90;99.90;;;;;;6173324;23;20262;-89
2023/08/04 20:07:54;;;;;;;8.48;3.08;;;16.80;99.90;;;;;;6173303;23;20011;-90
2023/08/04 20:10:36;;;;;;;7.20;3.05;;;16.80;99.90;;;;;;6199998;23;20004;-89
2023/08/04 20:13:05;;;;;;;5.28;2.90;;;16.80;99.90;;;;;;6175877;23;20012;-89
2023/08/04 20:15:39;;;;;;;5.95;3.33;;;16.70;99.90;;;;;;6175425;23;20000;-90
2023/08/04 20:18:07;;;;;;;7.28;2.88;;;16.70;99.90;;;;;;6198989;23;20024;-90
2023/08/04 20:20:34;;;;;;;7.85;3.10;;;16.70;99.90;;;;;;6199942;23;20012;-89
2023/08/04 20:23:15;;;;;;;9.85;3.13;;;16.70;99.90;;;;;;6204026;23;20071;-90
2023/08/04 20:25:43;;;;;;;7.03;2.83;;;16.60;99.90;;;;;;6199157;23;20008;-90
2023/08/04 20:28:13;;;;;;;7.65;3.40;;;16.60;99.90;;;;;;6224574;23;20265;-89
2023/08/04 20:30:55;;;;;;;7.07;3.00;;;16.60;99.90;;;;;;6201260;23;20000;-91
2023/08/04 20:33:29;;;;;;;6.93;2.95;;;16.50;99.90;;;;;;6176646;23;20010;-89
2023/08/04 20:36:09;;;;;;;7.93;3.00;;;16.50;99.90;;;;;;6199072;23;20004;-89
2023/08/04 20:39:04;;;;;;;8.50;3.63;;;16.50;99.90;;;;;;6174892;23;20403;-89
2023/08/04 20:41:55;;;;;;;8.50;4.15;;;16.50;99.90;;;;;;6189575;23;20008;-90
2023/08/04 20:44:24;;;;;;;7.25;3.38;;;16.40;99.90;;;;;;6198905;23;20015;-90
2023/08/04 20:47:08;;;;;;;8.88;3.47;;;16.40;99.90;;;;;;6178631;23;20008;-90
2023/08/04 20:49:54;;;;;;;;;;;;;;;;;;;;;
2023/08/04 20:52:43;;;;;;;9.18;3.83;;;16.30;99.90;;;;;;6198773;23;20015;-90
2023/08/04 20:55:21;;;;;;;9.35;3.08;;;16.30;99.90;;;;;;6152451;23;20097;-91
2023/08/04 20:57:57;;;;;;;6.25;2.50;;;16.30;99.90;;;;;;6180486;23;20028;-89
2023/08/04 21:00:28;;;;;;;9.68;3.15;;;16.30;99.90;;;;;;6145161;23;20028;-90
2023/08/04 21:03:03;;;;;;;8.68;3.00;;;16.30;99.90;;;;;;6170724;23;20005;-89
2023/08/04 21:05:32;;;;;;;10.05;2.90;;;16.20;99.90;;;;;;6194054;23;20016;-89
2023/08/04 21:08:13;;;;;;;5.72;2.58;;;16.20;99.90;;;;;;6195450;23;20385;-89
2023/08/04 21:11:03;;;;;;;8.93;2.78;;;16.20;99.90;;;;;;6195988;23;20056;-91
2023/08/04 21:13:38;;;;;;;6.72;3.13;;;16.20;99.90;;;;;;6192715;23;20011;-88
2023/08/04 21:16:09;;;;;;;8.30;2.95;;;16.20;99.90;;;;;;6192784;23;20096;-89
2023/08/04 21:18:42;;;;;;;6.95;2.70;;;16.10;99.90;;;;;;6146741;23;20012;-89
2023/08/04 21:21:10;;;;;;;6.55;3.20;;;16.10;99.90;;;;;;6192907;23;20040;-89
2023/08/04 21:23:42;;;;;;;12.55;3.55;;;16.10;99.90;;;;;;6169695;23;20005;-90
2023/08/04 21:26:08;;;;;;;7.93;3.20;;;16.10;99.90;;;;;;6168405;23;20401;-89
2023/08/04 21:28:37;;;;;;;7.50;2.90;;;16.10;99.90;;;;;;6169280;23;20339;-89
2023/08/04 21:31:14;;;;;;;8.98;3.25;;;16.10;99.90;;;;;;6148017;23;20016;-89
2023/08/04 21:33:41;;;;;;;8.43;3.20;;;16.10;99.90;;;;;;6168847;23;20252;-89
2023/08/04 21:36:18;;;;;;;8.82;3.15;;;16.00;99.90;;;;;;6172442;23;20091;-90
2023/08/04 21:38:47;;;;;;;8.38;3.20;;;16.00;99.90;;;;;;6192653;23;20035;-88
2023/08/04 21:41:26;;;;;;;8.57;3.35;;;16.00;99.90;;;;;;6194620;23;20051;-89
2023/08/04 21:43:57;;;;;;;7.18;3.45;;;16.00;99.90;;;;;;6169571;23;20394;-89
2023/08/04 21:46:49;;;;;;;8.50;3.63;;;16.00;99.90;;;;;;6169111;23;20007;-89
2023/08/04 21:49:25;;;;;;;6.93;3.10;;;16.00;99.90;;;;;;6163047;23;20059;-89
2023/08/04 21:51:57;;;;;;;7.88;3.25;;;15.90;99.90;;;;;;6168668;23;20031;-89
2023/08/04 21:54:29;;;;;;;9.20;3.72;;;15.90;99.90;;;;;;6193352;23;20004;-88
2023/08/04 21:57:00;;;;;;;6.72;3.38;;;16.00;99.90;;;;;;6169786;23;20015;-89
2023/08/04 21:59:30;;;;;;;10.77;3.67;;;16.00;99.90;;;;;;6142136;23;20078;-89
2023/08/04 22:02:01;;;;;;;7.50;4.00;;;16.00;99.90;;;;;;6192547;23;20024;-89
2023/08/04 22:04:29;;;;;;;10.05;3.85;;;16.00;99.90;;;;;;6144050;23;20009;-89
2023/08/04 22:07:04;;;;;;;7.60;3.47;;;16.00;99.90;;;;;;6168960;23;20008;-89
2023/08/04 22:09:35;;;;;;;10.50;3.50;;;16.00;99.90;;;;;;6193401;23;20449;-90
2023/08/04 22:12:07;;;;;;;8.77;3.67;;;16.00;99.90;;;;;;6193686;23;20080;-89
2023/08/04 22:14:43;;;;;;;10.07;4.10;;;16.00;99.90;;;;;;6196243;23;20038;-88
2023/08/04 22:17:09;;;;;;;7.60;4.10;;;16.00;99.90;;;;;;6142954;23;20083;-91
2023/08/04 22:19:36;;;;;;;7.65;4.13;;;16.00;99.90;;;;;;6192147;23;20416;-89
2023/08/04 22:22:05;;;;;;;8.60;3.80;;;16.00;99.90;;;;;;6192319;23;20087;-90
2023/08/04 22:24:32;;;;;;;8.38;3.65;;;16.00;99.90;;;;;;6167504;23;20013;-91
2023/08/04 22:27:04;;;;;;;11.05;4.07;;;16.00;99.90;;;;;;6193141;23;20005;-90
2023/08/04 22:29:30;;;;;;;10.05;3.60;;;16.00;99.90;;;;;;6192272;23;20032;-89
2023/08/04 22:31:57;;;;;;;11.68;3.58;;;16.00;99.90;;;;;;6168071;23;20005;-88
2023/08/04 22:34:27;;;;;;;7.28;3.15;;;16.00;99.90;;;;;;6167609;23;20036;-89
2023/08/04 22:36:59;;;;;;;9.77;3.70;;;16.00;99.90;;;;;;6145381;23;20005;-89
2023/08/04 22:39:30;;;;;;;8.73;3.47;;;16.00;99.90;;;;;;6192846;23;20011;-90
2023/08/04 22:41:59;;;;;;;7.57;3.63;;;16.00;99.90;;;;;;6193036;23;20055;-89
2023/08/04 22:44:30;;;;;;;9.90;3.90;;;16.00;99.90;;;;;;6168787;23;20012;-89
2023/08/04 22:46:56;;;;;;;8.60;3.72;;;16.00;99.90;;;;;;6168459;23;20700;-89
2023/08/04 22:49:24;;;;;;;9.65;3.72;;;16.00;99.90;;;;;;6168837;23;20263;-89
2023/08/04 22:51:52;;;;;;;13.25;3.92;;;16.00;99.90;;;;;;6193287;23;20016;-89
2023/08/04 22:54:18;;;;;;;10.32;4.47;;;16.00;99.90;;;;;;6192532;23;20408;-89
2023/08/04 22:56:47;;;;;;;10.93;3.63;;;16.00;99.90;;;;;;6189597;23;20015;-91
2023/08/04 22:59:21;;;;;;;8.52;3.80;;;16.00;99.90;;;;;;6169897;23;20040;-92
2023/08/04 23:01:52;;;;;;;9.30;3.50;;;16.00;99.90;;;;;;6192705;23;20017;-89
2023/08/04 23:04:21;;;;;;;13.57;4.03;;;15.90;99.90;;;;;;6191921;23;20008;-91
2023/08/04 23:06:51;;;;;;;7.15;3.45;;;15.90;99.90;;;;;;6192571;23;20009;-89
2023/08/04 23:09:24;;;;;;;6.97;3.47;;;15.90;99.90;;;;;;6192440;23;20095;-91
2023/08/04 23:11:56;;;;;;;7.68;3.58;;;15.80;99.90;;;;;;6170166;23;20013;-89
2023/08/04 23:14:25;;;;;;;7.32;3.58;;;15.80;99.90;;;;;;6191963;23;20009;-90
2023/08/04 23:16:54;;;;;;;9.60;4.07;;;15.80;99.90;;;;;;6144183;23;20418;-89
2023/08/04 23:19:26;;;;;;;7.68;4.13;;;15.80;99.90;;;;;;6167019;23;20016;-88
2023/08/04 23:21:54;;;;;;;6.82;3.33;;;15.80;99.90;;;;;;6191574;23;20008;-89
2023/08/04 23:24:21;;;;;;;8.18;3.60;;;15.70;99.90;;;;;;6191285;23;20035;-90
2023/08/04 23:26:51;;;;;;;7.68;3.60;;;15.70;99.90;;;;;;6168471;23;20015;-90
2023/08/04 23:29:22;;;;;;;6.75;3.75;;;15.70;99.90;;;;;;6216355;23;20039;-90
2023/08/04 23:31:51;;;;;;;7.00;3.80;;;15.60;99.90;;;;;;6191724;23;20008;-89
2023/08/04 23:34:17;;;;;;;6.68;3.13;;;15.60;99.90;;;;;;6143716;23;20321;-89
2023/08/04 23:36:48;;;;;;;9.07;3.20;;;15.60;99.90;;;;;;6217533;23;20012;-89
2023/08/04 23:39:17;;;;;;;10.48;3.28;;;15.60;99.90;;;;;;6167551;23;20020;-89
2023/08/04 23:41:45;;;;;;;8.80;3.70;;;15.50;99.90;;;;;;6167700;23;20092;-88
2023/08/04 23:44:19;;;;;;;7.20;3.75;;;15.50;99.90;;;;;;6191876;23;20040;-89
2023/08/04 23:46:45;;;;;;;8.05;3.70;;;15.50;99.90;;;;;;6189778;23;20008;-89
2023/08/04 23:49:11;;;;;;;10.25;3.92;;;15.40;99.90;;;;;;6191966;23;20415;-89
2023/08/04 23:51:40;;;;;;;7.85;3.53;;;15.40;99.90;;;;;;6192001;23;20263;-89
2023/08/04 23:54:06;;;;;;;8.75;4.10;;;15.40;99.90;;;;;;6167718;23;20326;-89
2023/08/04 23:56:44;;;;;;;7.82;4.20;;;15.40;99.90;;;;;;6192015;23;20044;-89
2023/08/04 23:59:10;;;;;;;9.57;3.90;;;15.40;99.90;;;;;;6192392;23;20095;-90
